Grandview on Hudson, New York
Current Conditions -  °F | °C
As of 9:56 AM on Friday 19 Dec 2014 (Local Time) from KHPN Reporting Station
Broken Clouds Broken Clouds  
Wind Chill: 25°   Ceiling: 3200
Heat Index: 34°   Visibility: 10mi
Dew Point: 21°   Wind: 14mph
Humidity: 59%   Direction: 310°NW
Pressure: 30.03"   Gusts: NA
Location:  41.0938°N, 73.9254°W
Report Text: KHPN 191456Z 31012KT 10SM BKN032 01/M06 A3003 RMK AO2 SLP175 T00111061 51020
Loading
Personal Weather Stations






























Interactive Weather Map New forecast layout! Learn more

10-Day Weather Forecast

Advertisements
Track Severe Weather on mobile